Aparecida do Rio Doce, Brazil
Current Conditions -  °F | °C
As of 8:00 PM on Sunday 23 Nov 2014 (Local Time) from SBGO Reporting Station
Light Rain Light Rain  
Wind Chill: 70°   Ceiling: 8000
Heat Index: 70°   Visibility: 6mi
Dew Point: 66°   Wind: 3mph
Humidity: 88%   Direction: 340°NNW
Pressure: 30"   Gusts: NA
Location:  18.3°S, 51.15°W
Report Text: SBGO 232200Z 34003KT 9999 -RA SCT008 OVC080 21/19 Q1016
Loading
Personal Weather Stations






























Interactive Weather Map New forecast layout! Learn more

10-Day Weather Forecast

Advertisements
Track Severe Weather on mobile